sensor_id;sensor_type;location;lat;lon;timestamp;P1;durP1;ratioP1;P2;durP2;ratioP2
69970;SDS011;57301;50.328;8.542;2023-04-25T00:01:03;11.82;;;7.55;;
69970;SDS011;57301;50.328;8.542;2023-04-25T00:03:31;12.57;;;8.27;;
69970;SDS011;57301;50.328;8.542;2023-04-25T00:05:58;14.37;;;7.70;;
69970;SDS011;57301;50.328;8.542;2023-04-25T00:08:29;14.35;;;8.93;;
69970;SDS011;57301;50.328;8.542;2023-04-25T00:10:56;15.88;;;9.05;;
69970;SDS011;57301;50.328;8.542;2023-04-25T00:13:23;15.95;;;9.73;;
69970;SDS011;57301;50.328;8.542;2023-04-25T00:15:52;15.18;;;9.02;;
69970;SDS011;57301;50.328;8.542;2023-04-25T00:18:22;15.93;;;9.37;;
69970;SDS011;57301;50.328;8.542;2023-04-25T00:20:49;17.08;;;9.32;;
69970;SDS011;57301;50.328;8.542;2023-04-25T00:23:16;16.27;;;9.77;;
69970;SDS011;57301;50.328;8.542;2023-04-25T00:25:49;15.90;;;9.18;;
69970;SDS011;57301;50.328;8.542;2023-04-25T00:28:16;14.27;;;9.60;;
69970;SDS011;57301;50.328;8.542;2023-04-25T00:30:43;15.53;;;9.23;;
69970;SDS011;57301;50.328;8.542;2023-04-25T00:33:09;16.02;;;9.40;;
69970;SDS011;57301;50.328;8.542;2023-04-25T00:35:36;18.02;;;10.05;;
69970;SDS011;57301;50.328;8.542;2023-04-25T00:38:04;17.65;;;10.25;;
69970;SDS011;57301;50.328;8.542;2023-04-25T00:40:30;16.55;;;9.65;;
69970;SDS011;57301;50.328;8.542;2023-04-25T00:42:57;13.93;;;8.67;;
69970;SDS011;57301;50.328;8.542;2023-04-25T00:45:26;14.88;;;8.88;;
69970;SDS011;57301;50.328;8.542;2023-04-25T00:47:54;16.77;;;10.00;;
69970;SDS011;57301;50.328;8.542;2023-04-25T00:50:21;15.65;;;9.52;;
69970;SDS011;57301;50.328;8.542;2023-04-25T00:52:48;14.90;;;9.32;;
69970;SDS011;57301;50.328;8.542;2023-04-25T00:55:15;14.23;;;8.87;;
69970;SDS011;57301;50.328;8.542;2023-04-25T00:57:42;14.30;;;8.80;;
69970;SDS011;57301;50.328;8.542;2023-04-25T01:00:09;16.70;;;9.90;;
69970;SDS011;57301;50.328;8.542;2023-04-25T01:02:37;13.68;;;9.50;;
69970;SDS011;57301;50.328;8.542;2023-04-25T01:05:04;14.70;;;9.25;;
69970;SDS011;57301;50.328;8.542;2023-04-25T01:07:30;18.77;;;10.20;;
69970;SDS011;57301;50.328;8.542;2023-04-25T01:09:57;18.13;;;9.68;;
69970;SDS011;57301;50.328;8.542;2023-04-25T01:12:24;16.50;;;9.07;;
69970;SDS011;57301;50.328;8.542;2023-04-25T01:14:50;17.33;;;8.05;;
69970;SDS011;57301;50.328;8.542;2023-04-25T01:17:17;17.73;;;8.95;;
69970;SDS011;57301;50.328;8.542;2023-04-25T01:19:44;13.67;;;8.47;;
69970;SDS011;57301;50.328;8.542;2023-04-25T01:22:14;14.80;;;9.00;;
69970;SDS011;57301;50.328;8.542;2023-04-25T01:24:41;15.18;;;8.38;;
69970;SDS011;57301;50.328;8.542;2023-04-25T01:27:07;17.25;;;9.18;;
69970;SDS011;57301;50.328;8.542;2023-04-25T01:29:35;18.00;;;9.18;;
69970;SDS011;57301;50.328;8.542;2023-04-25T01:32:02;18.90;;;9.53;;
69970;SDS011;57301;50.328;8.542;2023-04-25T01:34:29;15.50;;;8.57;;
69970;SDS011;57301;50.328;8.542;2023-04-25T01:36:55;18.80;;;9.13;;
69970;SDS011;57301;50.328;8.542;2023-04-25T01:39:22;16.10;;;8.63;;
69970;SDS011;57301;50.328;8.542;2023-04-25T01:41:49;14.80;;;7.90;;
69970;SDS011;57301;50.328;8.542;2023-04-25T01:44:16;16.53;;;8.10;;
69970;SDS011;57301;50.328;8.542;2023-04-25T01:46:43;15.55;;;8.27;;
69970;SDS011;57301;50.328;8.542;2023-04-25T01:49:10;15.65;;;9.07;;
69970;SDS011;57301;50.328;8.542;2023-04-25T01:51:37;16.98;;;9.18;;
69970;SDS011;57301;50.328;8.542;2023-04-25T01:54:03;18.02;;;10.05;;
69970;SDS011;57301;50.328;8.542;2023-04-25T01:56:33;23.53;;;12.83;;
69970;SDS011;57301;50.328;8.542;2023-04-25T01:59:04;21.08;;;10.07;;
69970;SDS011;57301;50.328;8.542;2023-04-25T02:01:32;18.25;;;9.70;;
69970;SDS011;57301;50.328;8.542;2023-04-25T02:03:59;16.48;;;9.50;;
69970;SDS011;57301;50.328;8.542;2023-04-25T02:06:26;31.50;;;15.88;;
69970;SDS011;57301;50.328;8.542;2023-04-25T02:08:52;18.37;;;9.37;;
69970;SDS011;57301;50.328;8.542;2023-04-25T02:11:19;16.75;;;8.57;;
69970;SDS011;57301;50.328;8.542;2023-04-25T02:13:45;17.00;;;9.27;;
69970;SDS011;57301;50.328;8.542;2023-04-25T02:16:12;15.38;;;9.38;;
69970;SDS011;57301;50.328;8.542;2023-04-25T02:18:39;17.38;;;9.32;;
69970;SDS011;57301;50.328;8.542;2023-04-25T02:21:05;16.97;;;9.20;;
69970;SDS011;57301;50.328;8.542;2023-04-25T02:23:32;16.75;;;9.48;;
69970;SDS011;57301;50.328;8.542;2023-04-25T02:25:58;17.92;;;9.43;;
69970;SDS011;57301;50.328;8.542;2023-04-25T02:28:25;18.63;;;9.98;;
69970;SDS011;57301;50.328;8.542;2023-04-25T02:30:52;15.30;;;9.93;;
69970;SDS011;57301;50.328;8.542;2023-04-25T02:33:19;19.27;;;9.90;;
69970;SDS011;57301;50.328;8.542;2023-04-25T02:35:47;19.05;;;9.52;;
69970;SDS011;57301;50.328;8.542;2023-04-25T02:38:13;16.17;;;9.00;;
69970;SDS011;57301;50.328;8.542;2023-04-25T02:40:40;16.38;;;8.93;;
69970;SDS011;57301;50.328;8.542;2023-04-25T02:43:07;18.38;;;7.85;;
69970;SDS011;57301;50.328;8.542;2023-04-25T02:45:33;14.70;;;7.93;;
69970;SDS011;57301;50.328;8.542;2023-04-25T02:48:02;17.00;;;8.70;;
69970;SDS011;57301;50.328;8.542;2023-04-25T02:50:29;17.08;;;7.82;;
69970;SDS011;57301;50.328;8.542;2023-04-25T02:52:55;16.17;;;7.85;;
69970;SDS011;57301;50.328;8.542;2023-04-25T02:55:21;14.15;;;8.00;;
69970;SDS011;57301;50.328;8.542;2023-04-25T02:57:49;17.33;;;7.73;;
69970;SDS011;57301;50.328;8.542;2023-04-25T03:00:16;19.13;;;8.85;;
69970;SDS011;57301;50.328;8.542;2023-04-25T03:02:43;16.30;;;8.38;;
69970;SDS011;57301;50.328;8.542;2023-04-25T03:05:09;15.07;;;8.13;;
69970;SDS011;57301;50.328;8.542;2023-04-25T03:07:36;20.15;;;8.25;;
69970;SDS011;57301;50.328;8.542;2023-04-25T03:10:02;15.37;;;8.00;;
69970;SDS011;57301;50.328;8.542;2023-04-25T03:12:29;15.85;;;8.13;;
69970;SDS011;57301;50.328;8.542;2023-04-25T03:14:55;16.92;;;8.13;;
69970;SDS011;57301;50.328;8.542;2023-04-25T03:17:22;17.63;;;8.10;;
69970;SDS011;57301;50.328;8.542;2023-04-25T03:19:48;17.98;;;8.20;;
69970;SDS011;57301;50.328;8.542;2023-04-25T03:22:15;20.93;;;9.03;;
69970;SDS011;57301;50.328;8.542;2023-04-25T03:24:41;18.27;;;8.20;;
69970;SDS011;57301;50.328;8.542;2023-04-25T03:27:08;17.88;;;8.38;;
69970;SDS011;57301;50.328;8.542;2023-04-25T03:29:35;16.02;;;8.40;;
69970;SDS011;57301;50.328;8.542;2023-04-25T03:32:01;17.05;;;8.98;;
69970;SDS011;57301;50.328;8.542;2023-04-25T03:34:28;22.53;;;9.50;;
69970;SDS011;57301;50.328;8.542;2023-04-25T03:36:55;69.65;;;34.22;;
69970;SDS011;57301;50.328;8.542;2023-04-25T03:39:21;22.50;;;10.70;;
69970;SDS011;57301;50.328;8.542;2023-04-25T03:41:48;17.10;;;8.88;;
69970;SDS011;57301;50.328;8.542;2023-04-25T03:44:14;22.00;;;9.80;;
69970;SDS011;57301;50.328;8.542;2023-04-25T03:46:41;30.60;;;14.87;;
69970;SDS011;57301;50.328;8.542;2023-04-25T03:49:07;27.17;;;11.23;;
69970;SDS011;57301;50.328;8.542;2023-04-25T03:51:34;19.85;;;10.15;;
69970;SDS011;57301;50.328;8.542;2023-04-25T03:54:00;19.10;;;10.00;;
69970;SDS011;57301;50.328;8.542;2023-04-25T03:56:27;17.95;;;9.20;;
69970;SDS011;57301;50.328;8.542;2023-04-25T03:58:53;20.50;;;9.03;;
69970;SDS011;57301;50.328;8.542;2023-04-25T04:01:20;22.35;;;10.07;;
69970;SDS011;57301;50.328;8.542;2023-04-25T04:03:46;22.13;;;9.52;;
69970;SDS011;57301;50.328;8.542;2023-04-25T04:06:13;19.45;;;8.95;;
69970;SDS011;57301;50.328;8.542;2023-04-25T04:08:40;24.55;;;12.48;;
69970;SDS011;57301;50.328;8.542;2023-04-25T04:11:06;21.83;;;9.90;;
69970;SDS011;57301;50.328;8.542;2023-04-25T04:13:33;17.85;;;8.80;;
69970;SDS011;57301;50.328;8.542;2023-04-25T04:15:59;22.70;;;8.50;;
69970;SDS011;57301;50.328;8.542;2023-04-25T04:18:26;19.50;;;9.18;;
69970;SDS011;57301;50.328;8.542;2023-04-25T04:20:52;21.00;;;9.80;;
69970;SDS011;57301;50.328;8.542;2023-04-25T04:23:19;21.30;;;8.77;;
69970;SDS011;57301;50.328;8.542;2023-04-25T04:25:46;18.00;;;8.88;;
69970;SDS011;57301;50.328;8.542;2023-04-25T04:28:13;17.92;;;8.82;;
69970;SDS011;57301;50.328;8.542;2023-04-25T04:30:39;17.10;;;8.40;;
69970;SDS011;57301;50.328;8.542;2023-04-25T04:33:07;18.63;;;8.68;;
69970;SDS011;57301;50.328;8.542;2023-04-25T04:35:34;15.20;;;8.53;;
69970;SDS011;57301;50.328;8.542;2023-04-25T04:38:01;17.95;;;8.93;;
69970;SDS011;57301;50.328;8.542;2023-04-25T04:40:27;22.85;;;8.20;;
69970;SDS011;57301;50.328;8.542;2023-04-25T04:42:54;20.27;;;8.85;;
69970;SDS011;57301;50.328;8.542;2023-04-25T04:45:23;18.73;;;8.20;;
69970;SDS011;57301;50.328;8.542;2023-04-25T04:47:49;19.17;;;8.00;;
69970;SDS011;57301;50.328;8.542;2023-04-25T04:50:16;16.60;;;7.80;;
69970;SDS011;57301;50.328;8.542;2023-04-25T04:52:43;17.92;;;8.25;;
69970;SDS011;57301;50.328;8.542;2023-04-25T04:55:09;18.85;;;7.55;;
69970;SDS011;57301;50.328;8.542;2023-04-25T04:57:36;16.38;;;7.78;;
69970;SDS011;57301;50.328;8.542;2023-04-25T05:00:03;15.13;;;7.17;;
69970;SDS011;57301;50.328;8.542;2023-04-25T05:02:37;19.75;;;7.88;;
69970;SDS011;57301;50.328;8.542;2023-04-25T05:05:05;18.48;;;8.00;;
69970;SDS011;57301;50.328;8.542;2023-04-25T05:07:32;20.05;;;8.18;;
69970;SDS011;57301;50.328;8.542;2023-04-25T05:09:58;15.10;;;6.65;;
69970;SDS011;57301;50.328;8.542;2023-04-25T05:12:25;17.83;;;7.10;;
69970;SDS011;57301;50.328;8.542;2023-04-25T05:14:51;17.58;;;7.03;;
69970;SDS011;57301;50.328;8.542;2023-04-25T05:17:18;16.77;;;7.10;;
69970;SDS011;57301;50.328;8.542;2023-04-25T05:19:44;17.95;;;7.10;;
69970;SDS011;57301;50.328;8.542;2023-04-25T05:22:11;19.10;;;6.47;;
69970;SDS011;57301;50.328;8.542;2023-04-25T05:24:37;17.60;;;7.73;;
69970;SDS011;57301;50.328;8.542;2023-04-25T05:27:04;17.13;;;7.07;;
69970;SDS011;57301;50.328;8.542;2023-04-25T05:29:31;16.70;;;6.55;;
69970;SDS011;57301;50.328;8.542;2023-04-25T05:31:58;17.55;;;6.45;;
69970;SDS011;57301;50.328;8.542;2023-04-25T05:34:25;11.32;;;5.40;;
69970;SDS011;57301;50.328;8.542;2023-04-25T05:36:52;12.87;;;5.90;;
69970;SDS011;57301;50.328;8.542;2023-04-25T05:39:18;12.05;;;6.28;;
69970;SDS011;57301;50.328;8.542;2023-04-25T05:41:45;12.48;;;7.03;;
69970;SDS011;57301;50.328;8.542;2023-04-25T05:44:11;9.90;;;6.35;;
69970;SDS011;57301;50.328;8.542;2023-04-25T05:46:37;12.13;;;5.30;;
69970;SDS011;57301;50.328;8.542;2023-04-25T05:49:04;11.90;;;5.33;;
69970;SDS011;57301;50.328;8.542;2023-04-25T05:51:31;11.93;;;5.35;;
69970;SDS011;57301;50.328;8.542;2023-04-25T05:53:57;10.82;;;5.40;;
69970;SDS011;57301;50.328;8.542;2023-04-25T05:56:24;11.55;;;5.40;;
69970;SDS011;57301;50.328;8.542;2023-04-25T05:58:50;11.77;;;5.60;;
69970;SDS011;57301;50.328;8.542;2023-04-25T06:01:17;11.53;;;5.67;;
69970;SDS011;57301;50.328;8.542;2023-04-25T06:03:43;12.60;;;4.93;;
69970;SDS011;57301;50.328;8.542;2023-04-25T06:06:11;14.02;;;5.38;;
69970;SDS011;57301;50.328;8.542;2023-04-25T06:08:38;11.43;;;6.00;;
69970;SDS011;57301;50.328;8.542;2023-04-25T06:11:04;11.38;;;5.28;;
69970;SDS011;57301;50.328;8.542;2023-04-25T06:13:31;8.40;;;4.43;;
69970;SDS011;57301;50.328;8.542;2023-04-25T06:15:57;10.95;;;5.20;;
69970;SDS011;57301;50.328;8.542;2023-04-25T06:18:24;9.35;;;4.63;;
69970;SDS011;57301;50.328;8.542;2023-04-25T06:20:50;9.48;;;5.03;;
69970;SDS011;57301;50.328;8.542;2023-04-25T06:23:17;8.13;;;4.95;;
69970;SDS011;57301;50.328;8.542;2023-04-25T06:25:44;10.60;;;5.00;;
69970;SDS011;57301;50.328;8.542;2023-04-25T06:28:10;9.50;;;4.45;;
69970;SDS011;57301;50.328;8.542;2023-04-25T06:30:37;9.32;;;4.63;;
69970;SDS011;57301;50.328;8.542;2023-04-25T06:33:03;8.65;;;4.95;;
69970;SDS011;57301;50.328;8.542;2023-04-25T06:35:30;10.32;;;4.60;;
69970;SDS011;57301;50.328;8.542;2023-04-25T06:37:57;9.30;;;4.83;;
69970;SDS011;57301;50.328;8.542;2023-04-25T06:40:23;10.85;;;4.70;;
69970;SDS011;57301;50.328;8.542;2023-04-25T06:42:50;11.32;;;5.05;;
69970;SDS011;57301;50.328;8.542;2023-04-25T06:45:16;9.52;;;4.82;;
69970;SDS011;57301;50.328;8.542;2023-04-25T06:47:43;9.50;;;5.22;;
69970;SDS011;57301;50.328;8.542;2023-04-25T06:50:09;9.53;;;4.60;;
69970;SDS011;57301;50.328;8.542;2023-04-25T06:52:37;9.30;;;5.32;;
69970;SDS011;57301;50.328;8.542;2023-04-25T06:55:03;9.40;;;5.10;;
69970;SDS011;57301;50.328;8.542;2023-04-25T06:57:31;12.25;;;5.60;;
69970;SDS011;57301;50.328;8.542;2023-04-25T06:59:58;10.25;;;5.43;;
69970;SDS011;57301;50.328;8.542;2023-04-25T07:02:27;9.80;;;5.20;;
69970;SDS011;57301;50.328;8.542;2023-04-25T07:04:54;11.45;;;5.32;;
69970;SDS011;57301;50.328;8.542;2023-04-25T07:07:22;10.05;;;4.90;;
69970;SDS011;57301;50.328;8.542;2023-04-25T07:09:49;9.98;;;5.18;;
69970;SDS011;57301;50.328;8.542;2023-04-25T07:12:15;12.32;;;5.65;;
69970;SDS011;57301;50.328;8.542;2023-04-25T07:14:41;11.03;;;4.90;;
69970;SDS011;57301;50.328;8.542;2023-04-25T07:17:08;11.38;;;5.53;;
69970;SDS011;57301;50.328;8.542;2023-04-25T07:19:35;10.70;;;5.75;;
69970;SDS011;57301;50.328;8.542;2023-04-25T07:22:02;9.18;;;5.30;;
69970;SDS011;57301;50.328;8.542;2023-04-25T07:24:29;10.32;;;5.28;;
69970;SDS011;57301;50.328;8.542;2023-04-25T07:26:55;9.87;;;5.23;;
69970;SDS011;57301;50.328;8.542;2023-04-25T07:29:22;10.23;;;4.80;;
69970;SDS011;57301;50.328;8.542;2023-04-25T07:31:49;11.18;;;5.35;;
69970;SDS011;57301;50.328;8.542;2023-04-25T07:34:16;9.75;;;5.07;;
69970;SDS011;57301;50.328;8.542;2023-04-25T07:36:43;12.43;;;5.60;;
69970;SDS011;57301;50.328;8.542;2023-04-25T07:39:09;13.23;;;5.60;;
69970;SDS011;57301;50.328;8.542;2023-04-25T07:41:36;9.68;;;5.18;;
69970;SDS011;57301;50.328;8.542;2023-04-25T07:44:03;10.98;;;5.45;;
69970;SDS011;57301;50.328;8.542;2023-04-25T07:46:30;9.45;;;5.32;;
69970;SDS011;57301;50.328;8.542;2023-04-25T07:48:56;9.98;;;5.80;;
69970;SDS011;57301;50.328;8.542;2023-04-25T07:51:23;11.60;;;6.00;;
69970;SDS011;57301;50.328;8.542;2023-04-25T07:53:49;11.20;;;6.20;;
69970;SDS011;57301;50.328;8.542;2023-04-25T07:56:16;12.77;;;6.10;;
69970;SDS011;57301;50.328;8.542;2023-04-25T07:58:43;8.13;;;5.32;;
69970;SDS011;57301;50.328;8.542;2023-04-25T08:01:09;10.80;;;5.78;;
69970;SDS011;57301;50.328;8.542;2023-04-25T08:03:36;12.63;;;6.33;;
69970;SDS011;57301;50.328;8.542;2023-04-25T08:06:03;11.85;;;6.07;;
69970;SDS011;57301;50.328;8.542;2023-04-25T08:08:33;9.25;;;6.03;;
69970;SDS011;57301;50.328;8.542;2023-04-25T08:11:00;9.73;;;5.40;;
69970;SDS011;57301;50.328;8.542;2023-04-25T08:13:26;17.55;;;8.30;;
69970;SDS011;57301;50.328;8.542;2023-04-25T08:15:53;13.83;;;6.70;;
69970;SDS011;57301;50.328;8.542;2023-04-25T08:18:19;11.23;;;5.97;;
69970;SDS011;57301;50.328;8.542;2023-04-25T08:20:46;11.38;;;6.15;;
69970;SDS011;57301;50.328;8.542;2023-04-25T08:23:13;10.45;;;6.25;;
69970;SDS011;57301;50.328;8.542;2023-04-25T08:25:39;11.40;;;6.18;;
69970;SDS011;57301;50.328;8.542;2023-04-25T08:28:06;11.17;;;5.33;;
69970;SDS011;57301;50.328;8.542;2023-04-25T08:30:32;10.15;;;5.90;;
69970;SDS011;57301;50.328;8.542;2023-04-25T08:32:59;10.85;;;5.53;;
69970;SDS011;57301;50.328;8.542;2023-04-25T08:35:26;11.90;;;6.55;;
69970;SDS011;57301;50.328;8.542;2023-04-25T08:37:52;9.57;;;5.85;;
69970;SDS011;57301;50.328;8.542;2023-04-25T08:40:19;12.53;;;5.77;;
69970;SDS011;57301;50.328;8.542;2023-04-25T08:42:53;11.52;;;6.00;;
69970;SDS011;57301;50.328;8.542;2023-04-25T08:45:20;8.68;;;6.00;;
69970;SDS011;57301;50.328;8.542;2023-04-25T08:47:46;10.30;;;6.13;;
69970;SDS011;57301;50.328;8.542;2023-04-25T08:50:15;9.18;;;6.03;;
69970;SDS011;57301;50.328;8.542;2023-04-25T08:52:44;12.40;;;6.23;;
69970;SDS011;57301;50.328;8.542;2023-04-25T08:55:12;7.68;;;5.10;;
69970;SDS011;57301;50.328;8.542;2023-04-25T08:57:43;71.22;;;36.22;;
69970;SDS011;57301;50.328;8.542;2023-04-25T09:00:11;119.30;;;62.80;;
69970;SDS011;57301;50.328;8.542;2023-04-25T09:02:38;45.20;;;22.92;;
69970;SDS011;57301;50.328;8.542;2023-04-25T09:05:06;73.90;;;37.37;;
69970;SDS011;57301;50.328;8.542;2023-04-25T09:07:35;57.03;;;27.80;;
69970;SDS011;57301;50.328;8.542;2023-04-25T09:10:02;13.75;;;7.20;;
69970;SDS011;57301;50.328;8.542;2023-04-25T09:12:29;10.05;;;5.10;;
69970;SDS011;57301;50.328;8.542;2023-04-25T09:17:37;9.00;;;4.43;;
69970;SDS011;57301;50.328;8.542;2023-04-25T09:20:07;8.23;;;4.68;;
69970;SDS011;57301;50.328;8.542;2023-04-25T09:22:38;8.07;;;4.45;;
69970;SDS011;57301;50.328;8.542;2023-04-25T09:25:09;7.32;;;4.95;;
69970;SDS011;57301;50.328;8.542;2023-04-25T09:27:37;7.60;;;5.03;;
69970;SDS011;57301;50.328;8.542;2023-04-25T09:30:16;7.50;;;4.07;;
69970;SDS011;57301;50.328;8.542;2023-04-25T09:32:43;9.40;;;4.68;;
69970;SDS011;57301;50.328;8.542;2023-04-25T09:35:10;8.88;;;5.18;;
69970;SDS011;57301;50.328;8.542;2023-04-25T09:37:51;10.30;;;4.63;;
69970;SDS011;57301;50.328;8.542;2023-04-25T09:40:18;8.45;;;4.57;;
69970;SDS011;57301;50.328;8.542;2023-04-25T09:42:44;7.93;;;4.50;;
69970;SDS011;57301;50.328;8.542;2023-04-25T09:45:12;17.55;;;11.23;;
69970;SDS011;57301;50.328;8.542;2023-04-25T09:47:41;13.77;;;7.55;;
69970;SDS011;57301;50.328;8.542;2023-04-25T09:50:16;7.47;;;4.53;;
69970;SDS011;57301;50.328;8.542;2023-04-25T09:52:45;7.72;;;4.10;;
69970;SDS011;57301;50.328;8.542;2023-04-25T09:55:11;8.00;;;4.10;;
69970;SDS011;57301;50.328;8.542;2023-04-25T09:57:38;6.57;;;3.92;;
69970;SDS011;57301;50.328;8.542;2023-04-25T10:00:06;21.75;;;11.50;;
69970;SDS011;57301;50.328;8.542;2023-04-25T10:02:38;9.80;;;5.75;;
69970;SDS011;57301;50.328;8.542;2023-04-25T10:05:08;6.55;;;3.95;;
69970;SDS011;57301;50.328;8.542;2023-04-25T10:07:36;6.23;;;3.83;;
69970;SDS011;57301;50.328;8.542;2023-04-25T10:10:05;7.95;;;4.15;;
69970;SDS011;57301;50.328;8.542;2023-04-25T10:12:32;7.68;;;4.10;;
69970;SDS011;57301;50.328;8.542;2023-04-25T10:14:59;7.63;;;3.65;;
69970;SDS011;57301;50.328;8.542;2023-04-25T10:17:27;6.25;;;3.50;;
69970;SDS011;57301;50.328;8.542;2023-04-25T10:19:54;8.00;;;3.67;;
69970;SDS011;57301;50.328;8.542;2023-04-25T10:22:38;6.68;;;3.63;;
69970;SDS011;57301;50.328;8.542;2023-04-25T10:25:08;6.72;;;3.80;;
69970;SDS011;57301;50.328;8.542;2023-04-25T10:27:35;5.05;;;2.85;;
69970;SDS011;57301;50.328;8.542;2023-04-25T10:30:24;5.15;;;3.40;;
69970;SDS011;57301;50.328;8.542;2023-04-25T10:32:50;4.40;;;3.27;;
69970;SDS011;57301;50.328;8.542;2023-04-25T10:35:17;7.68;;;3.35;;
69970;SDS011;57301;50.328;8.542;2023-04-25T10:37:59;7.35;;;3.30;;
69970;SDS011;57301;50.328;8.542;2023-04-25T10:40:33;5.20;;;3.05;;
69970;SDS011;57301;50.328;8.542;2023-04-25T10:46:00;6.37;;;3.00;;
69970;SDS011;57301;50.328;8.542;2023-04-25T10:48:28;7.18;;;3.40;;
69970;SDS011;57301;50.328;8.542;2023-04-25T10:51:08;7.25;;;3.60;;
69970;SDS011;57301;50.328;8.542;2023-04-25T10:53:35;4.80;;;2.92;;
69970;SDS011;57301;50.328;8.542;2023-04-25T10:56:16;5.57;;;2.83;;
69970;SDS011;57301;50.328;8.542;2023-04-25T10:58:44;6.33;;;3.00;;
69970;SDS011;57301;50.328;8.542;2023-04-25T11:01:13;6.03;;;3.10;;
69970;SDS011;57301;50.328;8.542;2023-04-25T11:03:41;7.05;;;3.20;;
69970;SDS011;57301;50.328;8.542;2023-04-25T11:06:58;7.72;;;3.05;;
69970;SDS011;57301;50.328;8.542;2023-04-25T11:08:57;6.63;;;3.75;;
69970;SDS011;57301;50.328;8.542;2023-04-25T11:11:28;11.83;;;6.37;;
69970;SDS011;57301;50.328;8.542;2023-04-25T11:13:55;9.75;;;4.47;;
69970;SDS011;57301;50.328;8.542;2023-04-25T11:16:23;7.95;;;3.83;;
69970;SDS011;57301;50.328;8.542;2023-04-25T11:19:11;6.50;;;3.03;;
69970;SDS011;57301;50.328;8.542;2023-04-25T11:21:37;6.43;;;3.50;;
69970;SDS011;57301;50.328;8.542;2023-04-25T11:24:04;8.20;;;3.77;;
69970;SDS011;57301;50.328;8.542;2023-04-25T11:26:31;8.63;;;3.60;;
69970;SDS011;57301;50.328;8.542;2023-04-25T11:28:58;10.60;;;4.13;;
69970;SDS011;57301;50.328;8.542;2023-04-25T11:31:26;5.18;;;3.25;;
69970;SDS011;57301;50.328;8.542;2023-04-25T11:33:53;9.10;;;3.63;;
69970;SDS011;57301;50.328;8.542;2023-04-25T11:36:22;7.10;;;3.57;;
69970;SDS011;57301;50.328;8.542;2023-04-25T11:38:50;7.57;;;3.70;;
69970;SDS011;57301;50.328;8.542;2023-04-25T11:41:18;7.25;;;3.60;;
69970;SDS011;57301;50.328;8.542;2023-04-25T11:43:45;7.38;;;3.47;;
69970;SDS011;57301;50.328;8.542;2023-04-25T11:46:12;8.98;;;3.58;;
69970;SDS011;57301;50.328;8.542;2023-04-25T11:48:39;7.87;;;3.87;;
69970;SDS011;57301;50.328;8.542;2023-04-25T11:51:06;9.52;;;3.60;;
69970;SDS011;57301;50.328;8.542;2023-04-25T11:53:33;6.20;;;3.67;;
69970;SDS011;57301;50.328;8.542;2023-04-25T11:56:00;6.97;;;4.25;;
69970;SDS011;57301;50.328;8.542;2023-04-25T11:58:27;8.88;;;3.83;;
69970;SDS011;57301;50.328;8.542;2023-04-25T12:00:53;7.43;;;3.70;;
69970;SDS011;57301;50.328;8.542;2023-04-25T12:03:20;8.52;;;3.60;;
69970;SDS011;57301;50.328;8.542;2023-04-25T12:05:50;9.43;;;3.88;;
69970;SDS011;57301;50.328;8.542;2023-04-25T12:08:17;6.53;;;3.80;;
69970;SDS011;57301;50.328;8.542;2023-04-25T12:10:44;9.20;;;3.58;;
69970;SDS011;57301;50.328;8.542;2023-04-25T12:13:22;7.47;;;4.33;;
69970;SDS011;57301;50.328;8.542;2023-04-25T12:15:51;7.95;;;4.03;;
69970;SDS011;57301;50.328;8.542;2023-04-25T12:18:20;6.70;;;3.85;;
69970;SDS011;57301;50.328;8.542;2023-04-25T12:20:49;8.02;;;3.67;;
69970;SDS011;57301;50.328;8.542;2023-04-25T12:23:15;8.50;;;3.83;;
69970;SDS011;57301;50.328;8.542;2023-04-25T12:25:43;11.37;;;6.37;;
69970;SDS011;57301;50.328;8.542;2023-04-25T12:28:18;32.28;;;16.17;;
69970;SDS011;57301;50.328;8.542;2023-04-25T12:33:25;9.70;;;4.40;;
69970;SDS011;57301;50.328;8.542;2023-04-25T12:35:55;7.10;;;3.70;;
69970;SDS011;57301;50.328;8.542;2023-04-25T12:38:23;8.53;;;4.50;;
69970;SDS011;57301;50.328;8.542;2023-04-25T12:40:57;8.23;;;4.13;;
69970;SDS011;57301;50.328;8.542;2023-04-25T12:43:24;10.20;;;4.00;;
69970;SDS011;57301;50.328;8.542;2023-04-25T12:45:54;7.38;;;3.72;;
69970;SDS011;57301;50.328;8.542;2023-04-25T12:48:22;8.30;;;3.80;;
69970;SDS011;57301;50.328;8.542;2023-04-25T12:50:49;9.53;;;4.50;;
69970;SDS011;57301;50.328;8.542;2023-04-25T12:53:17;19.35;;;10.13;;
69970;SDS011;57301;50.328;8.542;2023-04-25T12:55:45;9.88;;;5.70;;
69970;SDS011;57301;50.328;8.542;2023-04-25T12:58:13;6.90;;;3.80;;
69970;SDS011;57301;50.328;8.542;2023-04-25T13:00:40;9.27;;;4.88;;
69970;SDS011;57301;50.328;8.542;2023-04-25T13:03:07;7.40;;;4.60;;
69970;SDS011;57301;50.328;8.542;2023-04-25T13:05:35;8.93;;;3.92;;
69970;SDS011;57301;50.328;8.542;2023-04-25T13:08:03;10.23;;;5.18;;
69970;SDS011;57301;50.328;8.542;2023-04-25T13:10:30;11.57;;;5.57;;
69970;SDS011;57301;50.328;8.542;2023-04-25T13:12:57;12.55;;;5.65;;
69970;SDS011;57301;50.328;8.542;2023-04-25T13:15:24;17.30;;;7.73;;
69970;SDS011;57301;50.328;8.542;2023-04-25T13:17:50;11.88;;;5.32;;
69970;SDS011;57301;50.328;8.542;2023-04-25T13:20:17;12.45;;;5.28;;
69970;SDS011;57301;50.328;8.542;2023-04-25T13:22:45;9.65;;;4.40;;
69970;SDS011;57301;50.328;8.542;2023-04-25T13:25:11;11.77;;;5.18;;
69970;SDS011;57301;50.328;8.542;2023-04-25T13:27:38;10.73;;;4.70;;
69970;SDS011;57301;50.328;8.542;2023-04-25T13:30:06;7.70;;;4.18;;
69970;SDS011;57301;50.328;8.542;2023-04-25T13:32:34;10.80;;;4.50;;
69970;SDS011;57301;50.328;8.542;2023-04-25T13:35:03;10.55;;;4.20;;
69970;SDS011;57301;50.328;8.542;2023-04-25T13:37:34;7.05;;;3.60;;
69970;SDS011;57301;50.328;8.542;2023-04-25T13:40:02;5.83;;;3.97;;
69970;SDS011;57301;50.328;8.542;2023-04-25T13:42:31;7.05;;;3.70;;
69970;SDS011;57301;50.328;8.542;2023-04-25T13:44:58;6.30;;;3.38;;
69970;SDS011;57301;50.328;8.542;2023-04-25T13:47:25;5.25;;;3.22;;
69970;SDS011;57301;50.328;8.542;2023-04-25T13:49:53;5.15;;;3.13;;
69970;SDS011;57301;50.328;8.542;2023-04-25T13:52:19;8.57;;;3.27;;
69970;SDS011;57301;50.328;8.542;2023-04-25T13:54:46;8.30;;;3.60;;
69970;SDS011;57301;50.328;8.542;2023-04-25T13:57:13;7.20;;;3.38;;
69970;SDS011;57301;50.328;8.542;2023-04-25T13:59:39;56.10;;;29.70;;
69970;SDS011;57301;50.328;8.542;2023-04-25T14:02:07;6.88;;;4.20;;
69970;SDS011;57301;50.328;8.542;2023-04-25T14:04:36;8.50;;;4.67;;
69970;SDS011;57301;50.328;8.542;2023-04-25T14:07:03;8.82;;;3.75;;
69970;SDS011;57301;50.328;8.542;2023-04-25T14:09:31;6.72;;;3.95;;
69970;SDS011;57301;50.328;8.542;2023-04-25T14:11:57;5.40;;;3.47;;
69970;SDS011;57301;50.328;8.542;2023-04-25T14:14:24;7.80;;;3.70;;
69970;SDS011;57301;50.328;8.542;2023-04-25T14:16:51;7.57;;;3.77;;
69970;SDS011;57301;50.328;8.542;2023-04-25T14:19:22;9.48;;;3.78;;
69970;SDS011;57301;50.328;8.542;2023-04-25T14:21:49;9.98;;;4.68;;
69970;SDS011;57301;50.328;8.542;2023-04-25T14:24:16;6.85;;;4.55;;
69970;SDS011;57301;50.328;8.542;2023-04-25T14:26:43;8.75;;;3.70;;
69970;SDS011;57301;50.328;8.542;2023-04-25T14:29:09;6.03;;;3.43;;
69970;SDS011;57301;50.328;8.542;2023-04-25T14:31:38;6.80;;;3.60;;
69970;SDS011;57301;50.328;8.542;2023-04-25T14:34:06;8.45;;;4.00;;
69970;SDS011;57301;50.328;8.542;2023-04-25T14:36:33;8.02;;;4.10;;
69970;SDS011;57301;50.328;8.542;2023-04-25T14:39:00;7.78;;;4.72;;
69970;SDS011;57301;50.328;8.542;2023-04-25T14:41:27;5.97;;;3.10;;
69970;SDS011;57301;50.328;8.542;2023-04-25T14:43:54;5.25;;;2.67;;
69970;SDS011;57301;50.328;8.542;2023-04-25T14:46:21;6.97;;;2.92;;
69970;SDS011;57301;50.328;8.542;2023-04-25T14:48:49;4.82;;;2.80;;